Riverton, IL (62561)

6:16 AM CDT on August 26, 2016 (GMT -0500)
Gietl Park / Northgate | | Change Station

Elev 591 ft 39.83 °N, 89.61 °W | Updated 28 seconds ago

Partly Cloudy
Partly Cloudy
70.3 °F
Feels Like 70.3 °F
N
0.0
Wind Variable Wind from NNW

Today
High -- | Low -- °F
--% Chance of Precip.
Yesterday
High -- | Low -- °F
Precip. -- in
Pressure 30.09 in
Visibility 10.0 miles
Clouds Few 2200 ft
Dew Point 68 °F
Humidity 92%
Rainfall 0.00 in
Snow Depth Not available.
6:20 AM 7:37 PM
Waning Crescent, 35% visible
METAR KSPI 261052Z 12004KT 10SM FEW022 22/20 A3010 RMK AO2 LTG DSNT NW SLP187 T02220200
Pressure 30.09 in
Visibility 10.0 miles
Clouds Few 2200 ft
Dew Point 68 °F
Humidity 92%
Rainfall 0.00 in
Snow Depth Not available.
6:20 AM 7:37 PM
Waning Crescent, 35% visible
METAR KSPI 261052Z 12004KT 10SM FEW022 22/20 A3010 RMK AO2 LTG DSNT NW SLP187 T02220200

10-Day Weather Forecast

Almanac

Astronomy

Aug. 26, 2016 Rise Set
Actual Time
Civil Twilight
Nautical Twilight
Astronomical Twilight
Moon
Length of Visible Light
Length of Day
Tomorrow will be .
, % of the Moon is Illuminated

Today's Extremes

State Highs State Lows

Community

WunderPhotos

Upload Photos

1,935,069 photos uploaded!

WunderBlog® & News

Nearby

Air Quality

  Air Quality AQ Index Pollutant
Not available.

Snow Depth

Station Depth Elevation

Earthquake Activity

City Distance Mag. Time & Date
Minimum magnitude displayed is 2.5.

Coastal Water Temperatures

Place Temperature

Stations

Nearby Weather Stations

Station Location Temp. Windchill Dew Point Humidity Wind Precip. Elev Updated Type
                   

Watches & Warnings

There are currently no watches in effect.